Weather at C & L Ranch Ultralightport

Public forecast

Using degrees Fahrenheit for public forecast. Weather courtesy of forecast.io.

Closest aviation weather report (METAR) to C & L Ranch Ultralightport

Closest report is Sierra Vista Municipal Airport / Libby Army Air Field, 16.8 nm (31.2 km) ESE. Retrieved 2021/06/25 03:58 UTC (42 minutes ago):

KFHU 250358Z AUTO 27007KT 8SM CLR 25/07 A3009 RMK AO2 SLP113 T02510070

Closest aviation forecast (TAF) to C & L Ranch Ultralightport

Forecast is more than 6 hours old.

Closest forecast is Sierra Vista Municipal Airport / Libby Army Air Field, 16.8 nm (31.2 km) ESE. Retrieved 2021/06/24 22:18 UTC (6 hours ago):

TAF TAF KFHU 242200Z 2422/2604 28009KT 9999 SCT070 BKN090 QNH3006INS TEMPO 2422/2502 28010G15KT BECMG 2502/2503 29009KT 9999 SCT070 QNH3004INS BECMG 2520/2521 27012G17KT 9999 SKC QNH2998INS TX32/2423Z TN22/2513Z